Time;durP1;ratioP1;P1;durP2;ratioP2;P2;SDS_P1;SDS_P2;PMS_P1;PMS_P2;Temp;Humidity;BMP_temperature;BMP_pressure;BME280_temperature;BME280_humidity;BME280_pressure;Samples;Min_cycle;Max_cycle;Signal;HPM_P1;HPM_P2
2021/09/17 00:00:01;;;;;;;1.53;1.40;;;;;;;23.95;47.88;98511.34;5113881;28;20235;-52
2021/09/17 00:02:38;;;;;;;1.50;1.40;;;;;;;23.93;47.73;98511.53;5114014;28;20175;-51
2021/09/17 00:05:06;;;;;;;1.77;1.67;;;;;;;23.95;47.73;98514.00;5113950;28;20213;-51
2021/09/17 00:07:33;;;;;;;2.37;1.70;;;;;;;24.02;47.52;98516.72;5114150;28;20501;-51
2021/09/17 00:10:00;;;;;;;1.90;1.80;;;;;;;24.01;47.58;98517.75;5114026;28;20564;-51
2021/09/17 00:12:26;;;;;;;1.60;1.50;;;;;;;24.02;47.47;98517.56;5113832;28;20191;-51
2021/09/17 00:14:53;;;;;;;1.40;1.30;;;;;;;23.90;47.80;98516.44;5113807;28;20233;-51
2021/09/17 00:17:20;;;;;;;1.60;1.50;;;;;;;23.89;47.83;98520.13;5113632;28;20248;-51
2021/09/17 00:19:46;;;;;;;1.83;1.73;;;;;;;23.97;47.63;98522.63;5113578;28;20215;-50
2021/09/17 00:22:13;;;;;;;1.40;1.40;;;;;;;23.99;47.42;98531.25;5113959;28;20187;-51
2021/09/17 00:24:39;;;;;;;1.63;1.53;;;;;;;24.01;47.53;98529.22;5113926;28;20194;-50
2021/09/17 00:27:06;;;;;;;1.60;1.50;;;;;;;23.94;47.69;98517.69;5113848;28;20589;-51
2021/09/17 00:29:32;;;;;;;1.30;1.30;;;;;;;23.95;47.66;98527.34;5113602;28;20203;-50
2021/09/17 00:31:59;;;;;;;1.73;1.63;;;;;;;23.99;47.54;98525.13;5113733;28;20187;-50
2021/09/17 00:34:25;;;;;;;1.60;1.50;;;;;;;23.98;47.51;98524.28;5112629;28;20187;-51
2021/09/17 00:36:52;;;;;;;1.60;1.50;;;;;;;23.97;47.60;98522.63;5113457;28;20192;-50
2021/09/17 00:39:18;;;;;;;1.50;1.43;;;;;;;23.94;47.57;98523.03;5113239;28;20216;-50
2021/09/17 00:41:45;;;;;;;1.60;1.50;;;;;;;23.92;47.62;98519.75;5113755;28;20202;-51
2021/09/17 00:44:22;;;;;;;1.60;1.50;;;;;;;23.92;47.78;98511.75;5113319;28;20237;-50
2021/09/17 00:46:50;;;;;;;1.70;1.60;;;;;;;23.90;47.65;98514.59;5113613;28;20509;-50
2021/09/17 00:49:16;;;;;;;1.43;1.40;;;;;;;23.91;47.67;98518.09;5113303;28;20229;-51
2021/09/17 00:51:44;;;;;;;1.77;1.30;;;;;;;23.91;47.69;98508.25;5113529;28;20187;-50
2021/09/17 00:54:10;;;;;;;1.53;1.43;;;;;;;23.92;47.57;98511.75;5113744;28;20248;-50
2021/09/17 00:56:37;;;;;;;1.70;1.60;;;;;;;23.90;47.67;98511.94;5113227;28;20248;-51
2021/09/17 00:59:04;;;;;;;1.50;1.40;;;;;;;23.98;47.47;98507.47;5113326;28;20207;-50
2021/09/17 01:01:30;;;;;;;1.70;1.60;;;;;;;23.84;47.73;98506.56;5113343;28;20203;-50
2021/09/17 01:03:57;;;;;;;1.60;1.50;;;;;;;23.85;47.70;98501.03;5113147;28;20187;-50
2021/09/17 01:06:24;;;;;;;1.70;1.60;;;;;;;23.86;47.79;98499.19;5113126;28;20551;-50
2021/09/17 01:08:50;;;;;;;1.63;1.53;;;;;;;23.87;47.70;98506.16;5113015;28;20207;-50
2021/09/17 01:11:18;;;;;;;1.60;1.50;;;;;;;23.86;47.59;98507.19;5113417;28;20207;-51
2021/09/17 01:13:45;;;;;;;1.50;1.40;;;;;;;23.86;47.67;98493.84;5113036;28;20654;-50
2021/09/17 01:16:12;;;;;;;1.60;1.50;;;;;;;23.85;47.70;98497.53;5113172;28;20195;-50
2021/09/17 01:18:38;;;;;;;1.80;1.70;;;;;;;23.84;47.77;98493.22;5113271;28;20175;-50
2021/09/17 01:21:05;;;;;;;1.53;1.43;;;;;;;23.84;47.66;98494.06;5112942;28;20207;-50
2021/09/17 01:23:31;;;;;;;1.40;1.40;;;;;;;23.84;47.64;98496.72;5112953;28;20654;-50
2021/09/17 01:25:58;;;;;;;1.40;1.40;;;;;;;23.80;47.74;98490.97;5112982;28;20187;-51
2021/09/17 01:28:32;;;;;;;1.70;1.60;;;;;;;23.84;47.65;98493.22;5113100;28;20595;-51
2021/09/17 01:30:59;;;;;;;1.60;1.50;;;;;;;23.82;47.60;98488.91;5113500;28;20176;-51
2021/09/17 01:33:26;;;;;;;1.50;1.50;;;;;;;23.82;47.61;98478.25;5113096;28;20677;-50
2021/09/17 01:35:59;;;;;;;1.70;1.60;;;;;;;23.83;47.71;98481.75;5113103;28;20192;-50
2021/09/17 01:38:28;;;;;;;1.30;1.30;;;;;;;23.86;47.54;98483.19;5113362;28;20172;-50
2021/09/17 01:40:55;;;;;;;1.70;1.60;;;;;;;23.92;47.47;98477.09;5113217;28;20678;-50
2021/09/17 01:43:22;;;;;;;1.53;1.43;;;;;;;23.89;47.51;98480.16;5112834;28;20211;-51
2021/09/17 01:45:49;;;;;;;1.70;1.60;;;;;;;23.90;47.53;98473.81;5114162;28;20237;-50
2021/09/17 01:48:15;;;;;;;1.40;1.40;;;;;;;23.85;47.50;98477.06;5116830;28;20240;-50
2021/09/17 01:50:42;;;;;;;1.60;1.50;;;;;;;23.85;47.60;98473.56;5116503;28;20239;-51
2021/09/17 01:53:09;;;;;;;1.70;1.60;;;;;;;23.86;47.55;98472.53;5117107;28;20635;-50
2021/09/17 01:55:35;;;;;;;1.30;1.30;;;;;;;23.80;47.67;98477.63;5116743;28;20622;-51
2021/09/17 01:58:03;;;;;;;1.60;1.50;;;;;;;23.78;47.77;98466.34;5116439;28;20529;-51
2021/09/17 02:00:30;;;;;;;1.60;1.50;;;;;;;23.73;47.80;98468.78;5116290;28;20313;-50
2021/09/17 02:02:56;;;;;;;1.70;1.60;;;;;;;23.76;47.80;98473.72;5116575;28;20183;-51
2021/09/17 02:05:23;;;;;;;1.57;1.47;;;;;;;23.77;47.75;98470.03;5116303;28;20184;-51
2021/09/17 02:07:50;;;;;;;1.70;1.60;;;;;;;23.71;47.85;98472.66;5116504;28;20256;-50
2021/09/17 02:10:18;;;;;;;1.57;1.47;;;;;;;23.76;47.69;98468.41;5116380;28;20708;-51
2021/09/17 02:12:45;;;;;;;1.70;1.60;;;;;;;23.74;47.89;98465.09;5116262;28;20188;-51
2021/09/17 02:15:12;;;;;;;1.40;1.40;;;;;;;23.75;47.84;98463.25;5116140;28;20577;-51
2021/09/17 02:17:38;;;;;;;1.50;1.40;;;;;;;23.73;47.80;98465.28;5116035;28;20266;-53
2021/09/17 02:20:06;;;;;;;1.53;1.43;;;;;;;23.73;47.79;98462.63;5116051;28;20212;-50
2021/09/17 02:22:34;;;;;;;1.67;1.57;;;;;;;23.72;47.77;98464.47;5116237;28;20544;-51
2021/09/17 02:25:03;;;;;;;1.53;1.43;;;;;;;23.73;47.73;98460.78;5115927;28;20194;-52
2021/09/17 02:27:30;;;;;;;1.50;1.40;;;;;;;23.71;47.86;98457.47;5116177;28;20653;-51
2021/09/17 02:29:57;;;;;;;1.67;1.57;;;;;;;23.73;47.77;98457.28;5115735;28;20656;-51
2021/09/17 02:32:23;;;;;;;1.30;1.30;;;;;;;23.69;47.84;98459.50;5115726;27;20203;-51
2021/09/17 02:34:50;;;;;;;1.63;1.53;;;;;;;23.62;48.00;98459.47;5115992;28;20183;-52
2021/09/17 02:37:16;;;;;;;1.20;1.20;;;;;;;23.65;47.95;98455.59;5115645;28;20661;-53
2021/09/17 02:39:43;;;;;;;1.50;1.40;;;;;;;23.69;47.78;98462.19;5115494;28;20323;-53
2021/09/17 02:42:10;;;;;;;1.80;1.70;;;;;;;23.71;47.63;98460.13;5115510;28;20189;-53
2021/09/17 02:44:36;;;;;;;1.53;1.43;;;;;;;23.74;47.66;98459.78;5115859;28;20187;-51
2021/09/17 02:47:04;;;;;;;1.70;1.60;;;;;;;23.75;47.58;98463.25;5115484;28;20186;-51
2021/09/17 02:49:33;;;;;;;1.43;1.37;;;;;;;23.74;47.59;98459.78;5115615;28;20210;-51
2021/09/17 02:52:01;;;;;;;1.50;1.47;;;;;;;23.74;47.46;98461.59;5115415;28;20207;-50
2021/09/17 02:54:27;;;;;;;1.50;1.40;;;;;;;23.63;47.94;98461.13;5115356;28;20194;-51
2021/09/17 02:56:54;;;;;;;1.40;1.37;;;;;;;23.71;47.65;98454.81;5114587;28;20191;-51
2021/09/17 02:59:20;;;;;;;1.70;1.60;;;;;;;23.73;47.62;98454.63;5115141;28;20252;-50
2021/09/17 03:01:47;;;;;;;1.70;1.60;;;;;;;23.71;47.73;98449.47;5115099;28;20215;-50
2021/09/17 03:04:13;;;;;;;1.50;1.40;;;;;;;23.72;47.68;98442.34;5115086;28;20541;-50
2021/09/17 03:06:40;;;;;;;1.70;1.60;;;;;;;23.72;47.55;98447.66;5115084;27;20554;-48
2021/09/17 03:09:06;;;;;;;1.70;1.60;;;;;;;23.72;47.65;98445.84;5114980;28;20207;-50
2021/09/17 03:11:33;;;;;;;1.37;1.30;;;;;;;23.71;47.60;98441.50;5115022;28;20179;-50
2021/09/17 03:13:59;;;;;;;1.60;1.50;;;;;;;23.74;47.58;98434.97;5114924;28;20194;-50
2021/09/17 03:16:26;;;;;;;1.43;1.43;;;;;;;23.75;47.49;98432.09;5115046;28;20187;-48
2021/09/17 03:18:52;;;;;;;1.70;1.60;;;;;;;23.75;47.46;98437.44;5114885;28;20693;-50
2021/09/17 03:21:19;;;;;;;1.23;1.23;;;;;;;23.76;47.36;98438.25;5114733;28;20207;-50
2021/09/17 03:23:46;;;;;;;1.50;1.40;;;;;;;23.70;47.73;98439.84;5114779;28;20199;-50
2021/09/17 03:26:12;;;;;;;1.30;1.30;;;;;;;23.65;47.88;98435.13;5115250;28;20665;-52
2021/09/17 03:28:39;;;;;;;1.40;1.30;;;;;;;23.65;47.77;98428.97;5114618;28;20199;-50
2021/09/17 03:31:05;;;;;;;1.57;1.50;;;;;;;23.65;47.81;98427.13;5113371;28;20183;-50
2021/09/17 03:33:31;;;;;;;1.40;1.40;;;;;;;23.71;47.62;98433.50;5114527;28;20217;-50
2021/09/17 03:35:58;;;;;;;1.70;1.60;;;;;;;23.63;47.71;98431.00;5114488;28;20191;-51
2021/09/17 03:38:24;;;;;;;1.60;1.50;;;;;;;23.63;47.75;98425.69;5114377;28;20240;-50
2021/09/17 03:40:51;;;;;;;1.33;1.33;;;;;;;23.64;47.60;98427.31;5114334;28;20207;-50
2021/09/17 03:43:17;;;;;;;1.70;1.60;;;;;;;23.68;47.58;98423.25;5114322;28;20190;-50
2021/09/17 03:45:44;;;;;;;1.60;1.50;;;;;;;23.60;47.77;98424.22;5114582;28;20187;-51
2021/09/17 03:48:12;;;;;;;1.43;1.40;;;;;;;23.60;47.80;98418.09;5114215;27;20192;-51
2021/09/17 03:50:39;;;;;;;1.47;1.40;;;;;;;23.64;47.71;98422.00;5114371;28;20548;-50
2021/09/17 03:53:06;;;;;;;1.53;1.43;;;;;;;23.65;47.50;98423.63;5115231;28;20535;-51
2021/09/17 03:55:34;;;;;;;2.00;1.90;;;;;;;23.63;47.67;98423.81;5114360;28;20256;-50
2021/09/17 03:58:01;;;;;;;1.40;1.40;;;;;;;23.65;47.75;98423.63;5114063;28;20188;-50
2021/09/17 04:00:28;;;;;;;1.73;1.40;;;;;;;23.63;47.63;98421.16;5114391;28;20219;-51
2021/09/17 04:02:54;;;;;;;1.40;1.37;;;;;;;23.64;47.67;98419.34;5114022;28;20554;-52
2021/09/17 04:05:21;;;;;;;1.70;1.60;;;;;;;23.64;47.46;98419.34;5114499;28;20252;-51
2021/09/17 04:07:47;;;;;;;1.40;1.40;;;;;;;23.63;47.65;98409.69;5113852;28;20195;-50
2021/09/17 04:10:16;;;;;;;1.50;1.50;;;;;;;23.62;47.56;98408.06;5113668;28;20207;-51
2021/09/17 04:12:43;;;;;;;1.53;1.40;;;;;;;23.61;47.68;98411.72;5113781;28;20191;-50
2021/09/17 04:15:10;;;;;;;1.50;1.40;;;;;;;23.69;47.52;98414.22;5113833;28;20195;-50
2021/09/17 04:17:37;;;;;;;1.60;1.50;;;;;;;23.67;47.49;98410.94;5113786;28;20661;-51
2021/09/17 04:20:05;;;;;;;1.60;1.50;;;;;;;23.66;47.56;98417.28;5114287;28;20268;-50
2021/09/17 04:22:32;;;;;;;1.60;1.50;;;;;;;23.66;47.69;98419.94;5113910;28;20187;-50
2021/09/17 04:24:59;;;;;;;1.53;1.43;;;;;;;23.68;47.44;98407.25;5113632;28;20640;-51
2021/09/17 04:27:26;;;;;;;1.27;1.27;;;;;;;23.67;47.53;98410.94;5113580;28;20191;-50
2021/09/17 04:29:53;;;;;;;1.60;1.50;;;;;;;23.65;47.56;98408.50;5113409;28;20207;-50
2021/09/17 04:32:20;;;;;;;1.30;1.30;;;;;;;23.65;47.42;98408.50;5113792;28;20574;-50
2021/09/17 04:34:46;;;;;;;1.30;1.30;;;;;;;23.64;47.71;98412.19;5113487;28;20187;-50
2021/09/17 04:37:13;;;;;;;1.70;1.60;;;;;;;23.64;47.59;98417.50;5113683;28;20584;-50
2021/09/17 04:39:39;;;;;;;1.90;1.80;;;;;;;23.62;47.61;98413.38;5113340;28;20260;-51
2021/09/17 04:42:06;;;;;;;1.77;1.67;;;;;;;23.64;47.57;98417.50;5113331;28;20256;-50
2021/09/17 04:44:32;;;;;;;1.60;1.50;;;;;;;23.69;47.40;98414.22;5113350;28;20191;-51
2021/09/17 04:46:59;;;;;;;1.50;1.40;;;;;;;23.68;47.50;98420.56;5113301;28;20238;-50
2021/09/17 04:49:25;;;;;;;1.50;1.40;;;;;;;23.65;47.40;98424.47;5113256;28;20207;-50
2021/09/17 04:51:52;;;;;;;1.50;1.40;;;;;;;23.69;47.31;98419.56;5113231;28;20179;-51
2021/09/17 04:54:18;;;;;;;1.70;1.60;;;;;;;23.70;47.43;98423.06;5113460;28;20251;-50
2021/09/17 04:56:45;;;;;;;1.50;1.40;;;;;;;23.71;47.34;98422.03;5113162;28;20600;-50
2021/09/17 04:59:11;;;;;;;1.47;1.40;;;;;;;23.65;47.58;98426.31;5113387;28;20223;-51
2021/09/17 05:01:38;;;;;;;1.83;1.73;;;;;;;23.60;47.48;98426.88;5113083;28;20252;-51
2021/09/17 05:04:05;;;;;;;1.70;1.60;;;;;;;23.62;47.54;98421.38;5113263;28;20658;-51
2021/09/17 05:06:31;;;;;;;1.80;1.70;;;;;;;23.58;47.51;98420.13;5113402;28;20726;-50
2021/09/17 05:08:58;;;;;;;1.53;1.43;;;;;;;23.61;47.59;98420.53;5113015;28;20211;-50
2021/09/17 05:11:25;;;;;;;1.60;1.50;;;;;;;23.62;47.73;98418.72;5113318;28;20187;-51
2021/09/17 05:13:52;;;;;;;1.43;1.43;;;;;;;23.60;47.39;98421.56;5112967;28;20236;-50
2021/09/17 05:16:19;;;;;;;1.77;1.67;;;;;;;23.61;47.53;98422.38;5112764;28;20187;-51
2021/09/17 05:18:46;;;;;;;1.40;1.30;;;;;;;23.62;47.47;98424.84;5113167;28;20268;-51
2021/09/17 05:21:13;;;;;;;1.57;1.47;;;;;;;23.61;47.48;98420.53;5115129;28;20612;-50
2021/09/17 05:23:40;;;;;;;2.10;1.80;;;;;;;23.62;47.50;98418.72;5117057;28;20187;-51
2021/09/17 05:26:07;;;;;;;1.60;1.50;;;;;;;23.64;47.42;98427.31;5117081;28;20251;-50
2021/09/17 05:28:34;;;;;;;1.70;1.60;;;;;;;23.68;47.23;98424.06;5116986;28;20188;-50
2021/09/17 05:31:00;;;;;;;1.60;1.50;;;;;;;23.68;47.08;98425.91;5116968;27;20187;-50
2021/09/17 05:33:27;;;;;;;1.43;1.43;;;;;;;23.65;47.35;98418.31;5117149;28;20188;-50
2021/09/17 05:35:55;;;;;;;1.57;1.47;;;;;;;23.63;47.34;98420.34;5117126;28;20215;-51
2021/09/17 05:38:21;;;;;;;1.90;1.73;;;;;;;23.63;47.41;98421.16;5116710;28;20195;-48
2021/09/17 05:40:48;;;;;;;2.23;1.70;;;;;;;23.75;47.19;98424.13;5116689;28;20606;-51
2021/09/17 05:43:14;;;;;;;1.90;1.80;;;;;;;23.74;47.05;98432.28;5116608;28;20240;-51
2021/09/17 05:45:41;;;;;;;1.50;1.40;;;;;;;23.76;47.08;98433.75;5117132;28;20187;-51
2021/09/17 05:48:07;;;;;;;1.63;1.53;;;;;;;23.73;47.25;98438.66;5116578;28;20183;-50
2021/09/17 05:50:34;;;;;;;1.40;1.30;;;;;;;23.76;47.16;98436.41;5116512;28;20697;-50
2021/09/17 05:53:00;;;;;;;1.73;1.63;;;;;;;23.77;47.11;98438.06;5116532;28;20256;-51
2021/09/17 05:55:28;;;;;;;1.70;1.60;;;;;;;23.84;46.98;98434.59;5117205;28;20179;-48
2021/09/17 05:57:55;;;;;;;2.00;1.90;;;;;;;23.86;46.95;98429.91;5116360;28;20187;-50
2021/09/17 06:00:22;;;;;;;1.60;1.50;;;;;;;23.84;47.04;98432.78;5116600;28;20253;-51
2021/09/17 06:02:49;;;;;;;1.70;1.60;;;;;;;23.88;46.87;98428.69;5116499;28;20208;-50
2021/09/17 06:05:15;;;;;;;1.60;1.50;;;;;;;23.81;47.14;98431.31;5116258;28;20562;-51
2021/09/17 06:07:44;;;;;;;1.90;1.73;;;;;;;23.90;46.91;98439.16;5116221;28;20237;-51
2021/09/17 06:10:14;;;;;;;1.83;1.57;;;;;;;23.91;46.95;98430.94;5116424;28;20195;-51
2021/09/17 06:12:41;;;;;;;1.53;1.47;;;;;;;23.92;46.77;98429.13;5116138;28;20179;-53
2021/09/17 06:15:09;;;;;;;1.70;1.60;;;;;;;23.94;46.92;98437.75;5116418;28;20188;-51
2021/09/17 06:17:35;;;;;;;1.80;1.70;;;;;;;23.96;46.96;98433.03;5115922;28;20203;-52
2021/09/17 06:20:03;;;;;;;1.93;1.80;;;;;;;23.96;46.91;98433.03;5115880;28;20211;-51
2021/09/17 06:22:30;;;;;;;1.80;1.60;;;;;;;23.96;47.07;98431.22;5116086;28;20547;-51
2021/09/17 06:24:56;;;;;;;1.83;1.73;;;;;;;24.02;47.06;98434.09;5116163;28;20782;-51
2021/09/17 06:27:22;;;;;;;1.80;1.70;;;;;;;24.05;46.93;98434.56;5115879;28;20552;-51
2021/09/17 06:29:49;;;;;;;1.80;1.70;;;;;;;24.08;46.90;98433.31;5115711;28;20556;-52
2021/09/17 06:32:15;;;;;;;1.80;1.70;;;;;;;24.12;46.93;98433.75;5114379;27;20543;-51
2021/09/17 06:34:42;;;;;;;1.70;1.60;;;;;;;24.15;46.74;98428.03;5115941;28;20188;-51
2021/09/17 06:37:09;;;;;;;2.07;1.97;;;;;;;24.16;46.88;98419.84;5115656;28;20264;-50
2021/09/17 06:39:35;;;;;;;1.90;1.80;;;;;;;24.18;46.66;98422.28;5115488;28;20206;-51
2021/09/17 06:42:02;;;;;;;1.80;1.70;;;;;;;24.21;46.75;98421.91;5115671;28;20256;-52
2021/09/17 06:44:29;;;;;;;2.40;1.80;;;;;;;24.24;46.63;98422.31;5115517;28;20260;-51
2021/09/17 06:46:56;;;;;;;2.00;1.90;;;;;;;24.27;46.64;98431.78;5115493;27;20207;-52
2021/09/17 06:49:23;;;;;;;1.80;1.70;;;;;;;24.28;46.53;98433.41;5115396;28;20289;-49
2021/09/17 06:51:49;;;;;;;2.13;1.80;;;;;;;24.28;46.63;98425.41;5115595;28;20244;-51
2021/09/17 06:54:16;;;;;;;2.27;2.07;;;;;;;24.30;46.73;98426.03;5115652;28;20221;-51
2021/09/17 06:56:42;;;;;;;1.80;1.70;;;;;;;24.32;46.44;98425.84;5115316;28;20597;-51
2021/09/17 06:59:09;;;;;;;2.13;2.03;;;;;;;24.32;46.59;98423.97;5115541;28;20322;-51
2021/09/17 07:01:36;;;;;;;2.33;2.20;;;;;;;24.25;46.79;98420.47;5115001;28;20317;-52
2021/09/17 07:04:03;;;;;;;2.10;2.00;;;;;;;24.27;46.67;98422.94;5115344;28;20552;-50
2021/09/17 07:06:32;;;;;;;2.00;1.90;;;;;;;24.28;46.81;98432.56;5113901;28;20187;-51
2021/09/17 07:08:59;;;;;;;2.17;1.93;;;;;;;24.22;47.10;98428.88;5114904;28;20215;-51
2021/09/17 07:11:27;;;;;;;2.80;1.70;;;;;;;24.13;47.22;98425.56;5115033;28;20232;-51
2021/09/17 07:13:53;;;;;;;2.20;2.00;;;;;;;24.12;47.25;98423.91;5115388;28;20565;-51
2021/09/17 07:16:20;;;;;;;2.53;2.20;;;;;;;24.07;47.26;98423.69;5115018;28;20192;-51
2021/09/17 07:18:46;;;;;;;2.10;2.00;;;;;;;24.10;47.31;98426.78;5115108;28;20218;-50
2021/09/17 07:21:13;;;;;;;3.33;2.10;;;;;;;24.14;47.16;98429.88;5114928;28;20207;-51
2021/09/17 07:23:40;;;;;;;2.00;1.90;;;;;;;24.15;47.11;98418.19;5114713;28;20184;-51
2021/09/17 07:26:06;;;;;;;2.60;2.17;;;;;;;24.16;47.26;98421.66;5114713;28;20645;-51
2021/09/17 07:28:33;;;;;;;2.07;1.97;;;;;;;24.14;47.21;98427.22;5114534;28;20187;-51
2021/09/17 07:31:00;;;;;;;2.13;1.93;;;;;;;24.15;47.02;98422.69;5114870;28;20183;-51
2021/09/17 07:33:28;;;;;;;1.80;1.70;;;;;;;24.12;47.27;98425.75;5114617;28;20183;-51
2021/09/17 07:35:54;;;;;;;1.90;1.80;;;;;;;24.05;47.43;98418.56;5114454;28;20610;-51
2021/09/17 07:38:21;;;;;;;2.00;1.90;;;;;;;24.09;47.22;98422.47;5114894;28;20183;-54
2021/09/17 07:40:47;;;;;;;2.33;2.00;;;;;;;24.03;47.47;98425.91;5114383;28;20183;-53
2021/09/17 07:43:14;;;;;;;2.10;1.90;;;;;;;24.05;47.37;98425.72;5113840;28;20207;-50
2021/09/17 07:45:40;;;;;;;2.90;1.70;;;;;;;23.98;47.78;98423.00;5114405;28;20669;-50
2021/09/17 07:48:07;;;;;;;1.90;1.80;;;;;;;24.08;47.43;98428.81;5114456;28;20191;-50
2021/09/17 07:50:35;;;;;;;1.90;1.80;;;;;;;24.10;47.42;98426.78;5114063;28;20203;-51
2021/09/17 07:53:01;;;;;;;2.00;1.90;;;;;;;24.14;47.27;98429.88;5114194;28;20179;-51
2021/09/17 07:55:33;;;;;;;2.07;1.97;;;;;;;24.10;47.34;98429.44;5114625;27;20260;-51
2021/09/17 07:58:05;;;;;;;2.00;1.77;;;;;;;24.15;47.29;98430.69;5114224;28;20495;-51
2021/09/17 08:00:32;;;;;;;2.10;1.90;;;;;;;24.11;47.18;98427.59;5114242;28;20213;-51
2021/09/17 08:02:59;;;;;;;1.90;1.80;;;;;;;24.08;47.25;98423.50;5113875;28;20298;-51
2021/09/17 08:05:26;;;;;;;2.10;2.00;;;;;;;24.13;47.20;98430.91;5113919;28;20240;-51
2021/09/17 08:07:53;;;;;;;2.00;1.90;;;;;;;24.14;47.16;98429.88;5113916;28;20191;-49
2021/09/17 08:10:20;;;;;;;2.13;1.93;;;;;;;24.12;47.45;98429.22;5113728;28;20240;-51
2021/09/17 08:12:47;;;;;;;2.00;1.90;;;;;;;24.12;47.24;98425.75;5113831;28;20191;-51
2021/09/17 08:15:13;;;;;;;2.03;1.80;;;;;;;24.04;47.61;98421.41;5113960;28;20672;-51
2021/09/17 08:17:40;;;;;;;2.30;2.10;;;;;;;24.08;47.56;98428.81;5112413;28;20206;-51
2021/09/17 08:20:07;;;;;;;2.63;2.10;;;;;;;24.10;47.30;98426.78;5113640;28;20645;-51
2021/09/17 08:22:34;;;;;;;1.90;1.80;;;;;;;24.09;47.46;98426.97;5113796;28;20681;-51
2021/09/17 08:25:05;;;;;;;2.10;2.00;;;;;;;24.13;47.10;98422.91;5113852;28;20538;-50
2021/09/17 08:27:31;;;;;;;2.10;2.00;;;;;;;24.18;47.16;98427.63;5113576;28;20187;-51
2021/09/17 08:29:58;;;;;;;2.30;2.10;;;;;;;24.14;47.27;98426.38;5113424;28;20215;-53
2021/09/17 08:32:24;;;;;;;2.77;1.97;;;;;;;23.94;47.84;98421.75;5113515;28;20213;-51
2021/09/17 08:34:51;;;;;;;2.60;2.10;;;;;;;23.89;48.24;98425.00;5113694;28;20572;-51
2021/09/17 08:37:18;;;;;;;2.30;2.10;;;;;;;23.85;48.42;98433.59;5113738;28;20256;-52
2021/09/17 08:39:45;;;;;;;2.77;1.97;;;;;;;23.84;48.29;98429.28;5113826;28;20290;-51
2021/09/17 08:42:12;;;;;;;2.13;1.70;;;;;;;23.85;48.47;98428.25;5113681;28;20264;-50
2021/09/17 08:44:38;;;;;;;2.60;1.93;;;;;;;23.89;48.21;98429.53;5113528;28;20176;-51
2021/09/17 08:47:07;;;;;;;3.30;2.00;;;;;;;23.89;48.15;98424.19;5113440;28;20188;-49
2021/09/17 08:49:35;;;;;;;2.77;1.80;;;;;;;23.93;48.27;98423.59;5112200;28;20653;-51
2021/09/17 08:52:03;;;;;;;2.17;1.83;;;;;;;23.95;48.03;98426.06;5113741;28;20176;-51
2021/09/17 08:54:31;;;;;;;2.27;1.90;;;;;;;23.94;48.18;98427.09;5113171;28;20180;-52
2021/09/17 08:56:57;;;;;;;2.20;1.90;;;;;;;23.92;48.09;98424.59;5113046;28;20228;-51
2021/09/17 08:59:24;;;;;;;3.37;2.47;;;;;;;23.88;48.15;98428.69;5113181;28;20260;-51
2021/09/17 09:01:50;;;;;;;3.00;2.70;;;;;;;23.82;48.03;98437.47;5113049;28;20207;-51
2021/09/17 09:04:28;;;;;;;6.47;3.30;;;;;;;23.78;48.24;98425.53;5113165;28;20270;-51
2021/09/17 09:07:04;;;;;;;3.63;3.33;;;;;;;23.82;48.16;98418.84;5113680;28;20186;-51
2021/09/17 09:09:31;;;;;;;3.57;3.27;;;;;;;23.83;47.98;98428.47;5113057;28;20251;-51
2021/09/17 09:11:57;;;;;;;3.90;3.40;;;;;;;23.87;47.92;98418.22;5113077;28;20186;-51
2021/09/17 09:14:24;;;;;;;4.83;3.70;;;;;;;23.91;47.64;98416.81;5113132;28;20187;-53
2021/09/17 09:16:53;;;;;;;3.20;3.00;;;;;;;23.95;47.68;98416.22;5112996;28;20246;-51
2021/09/17 09:19:30;;;;;;;3.30;3.10;;;;;;;24.00;47.36;98412.16;5113070;28;20207;-51
2021/09/17 09:22:02;;;;;;;4.63;3.60;;;;;;;24.02;47.56;98413.59;5113337;28;20202;-51
2021/09/17 09:24:31;;;;;;;3.70;3.20;;;;;;;24.04;47.39;98405.44;5113321;28;20191;-50
2021/09/17 09:27:06;;;;;;;4.47;3.63;;;;;;;24.04;47.34;98411.56;5112887;28;20183;-51
2021/09/17 09:29:33;;;;;;;4.17;3.50;;;;;;;24.04;47.46;98408.91;5112738;28;20693;-51
2021/09/17 09:32:00;;;;;;;7.37;5.47;;;;;;;24.00;47.08;98409.47;5105384;28;20192;-50
2021/09/17 09:34:46;;;;;;;6.90;5.40;;;;;;;23.96;46.95;98403.72;5099176;28;20196;-52
2021/09/17 09:37:13;;;;;;;5.67;5.17;;;;;;;23.92;46.91;98407.81;5095440;28;20180;-54
2021/09/17 09:40:00;;;;;;;6.03;5.43;;;;;;;23.91;46.59;98408.81;5112705;28;20207;-53
2021/09/17 09:42:31;;;;;;;5.37;4.87;;;;;;;23.90;46.31;98405.31;5112771;28;20263;-53
2021/09/17 09:45:18;;;;;;;5.47;4.93;;;;;;;23.89;46.25;98409.00;5112921;28;20252;-53
2021/09/17 09:47:50;;;;;;;4.97;4.47;;;;;;;23.90;46.22;98404.53;5112871;28;20183;-54
2021/09/17 09:50:22;;;;;;;5.30;4.80;;;;;;;23.90;46.24;98399.19;5111554;28;20253;-54
2021/09/17 09:52:54;;;;;;;4.70;4.23;;;;;;;23.91;46.41;98403.50;5112566;28;20176;-56
2021/09/17 09:55:21;;;;;;;4.93;4.43;;;;;;;23.90;46.58;98396.53;5112967;28;20515;-55
2021/09/17 09:57:48;;;;;;;4.97;4.40;;;;;;;23.92;46.19;98391.81;5112740;28;20241;-54
2021/09/17 10:00:16;;;;;;;4.47;4.10;;;;;;;23.93;46.52;98390.78;5113014;28;20203;-54
2021/09/17 10:02:45;;;;;;;5.00;4.60;;;;;;;23.96;46.48;98391.22;5112726;28;20207;-54
2021/09/17 10:05:15;;;;;;;5.00;4.30;;;;;;;23.96;46.51;98387.72;5112749;28;20180;-56
2021/09/17 10:07:43;;;;;;;4.00;3.70;;;;;;;23.93;46.37;98388.94;5115267;28;20245;-56
2021/09/17 10:10:12;;;;;;;5.10;4.57;;;;;;;23.92;46.65;98387.28;5116312;28;20219;-54
2021/09/17 10:12:44;;;;;;;6.53;4.67;;;;;;;23.91;46.38;98382.19;5116631;28;20203;-55
2021/09/17 10:15:12;;;;;;;6.07;5.47;;;;;;;23.90;46.36;98383.19;5116313;28;20183;-55
2021/09/17 10:17:51;;;;;;;5.10;4.70;;;;;;;23.85;46.59;98385.63;5116329;28;20560;-54
2021/09/17 10:20:18;;;;;;;6.17;5.57;;;;;;;23.79;46.54;98380.06;5116555;28;20218;-55
2021/09/17 10:22:45;;;;;;;5.60;5.10;;;;;;;23.74;46.54;98390.50;5116034;28;20670;-53
2021/09/17 10:25:16;;;;;;;6.70;6.03;;;;;;;23.75;46.53;98386.81;5116389;28;20253;-56
2021/09/17 10:28:08;;;;;;;6.10;5.60;;;;;;;23.72;46.54;98384.56;5116067;28;20168;-56
2021/09/17 10:30:38;;;;;;;6.20;5.60;;;;;;;23.71;46.54;98385.53;5116743;28;20215;-55
2021/09/17 10:33:29;;;;;;;7.00;6.40;;;;;;;23.69;46.52;98387.59;5116705;28;20168;-54
2021/09/17 10:35:56;;;;;;;7.10;5.60;;;;;;;23.67;46.45;98392.28;5116217;28;20630;-54
2021/09/17 10:38:26;;;;;;;6.33;5.67;;;;;;;23.66;46.64;98385.31;5115827;28;20661;-54
2021/09/17 10:40:53;;;;;;;6.53;5.67;;;;;;;23.68;46.47;98372.63;5116454;28;20187;-52
2021/09/17 10:43:22;;;;;;;6.43;5.77;;;;;;;23.68;46.36;98376.13;5116543;28;20271;-52
2021/09/17 10:45:51;;;;;;;5.97;5.10;;;;;;;23.70;46.26;98375.09;5115857;28;20195;-53
2021/09/17 10:48:24;;;;;;;5.97;5.37;;;;;;;23.70;46.15;98378.56;5115593;28;20347;-55
2021/09/17 10:50:57;;;;;;;5.83;5.03;;;;;;;23.67;46.24;98378.97;5116382;28;20574;-53
2021/09/17 10:53:41;;;;;;;6.60;5.20;;;;;;;23.66;46.19;98374.66;5116008;28;20163;-53
2021/09/17 10:56:12;;;;;;;6.20;5.60;;;;;;;23.65;46.17;98371.19;5115781;28;20176;-54
2021/09/17 10:58:39;;;;;;;6.07;5.50;;;;;;;23.64;46.13;98374.03;5115350;28;20187;-54
2021/09/17 11:01:10;;;;;;;5.03;4.63;;;;;;;23.62;46.09;98368.91;5115366;28;20179;-53
2021/09/17 11:03:37;;;;;;;5.13;4.67;;;;;;;23.65;46.12;98373.84;5115575;28;20721;-55
2021/09/17 11:06:22;;;;;;;6.10;5.50;;;;;;;23.65;46.01;98375.69;5115499;28;20217;-55
2021/09/17 11:08:54;;;;;;;5.63;5.10;;;;;;;23.65;45.72;98375.69;5114030;28;20696;-53
2021/09/17 11:11:27;;;;;;;6.40;5.60;;;;;;;23.64;45.49;98368.72;5115203;28;20225;-53
2021/09/17 11:13:57;;;;;;;6.13;5.63;;;;;;;23.64;45.32;98366.06;5115233;27;20167;-53
2021/09/17 11:16:25;;;;;;;5.27;4.77;;;;;;;23.64;45.50;98366.06;5114902;28;20661;-53
2021/09/17 11:18:52;;;;;;;5.80;5.20;;;;;;;23.67;45.63;98365.66;5114476;28;20219;-53
2021/09/17 11:21:21;;;;;;;5.83;5.30;;;;;;;23.66;45.67;98362.19;5115090;28;20221;-52
2021/09/17 11:23:51;;;;;;;4.57;4.17;;;;;;;23.69;45.64;98366.28;5115008;28;20204;-53
2021/09/17 11:26:24;;;;;;;6.00;4.77;;;;;;;23.70;45.68;98362.59;5116114;28;20536;-53
2021/09/17 11:29:18;;;;;;;4.80;4.40;;;;;;;23.73;45.57;98356.88;5115082;28;20290;-55
2021/09/17 11:31:55;;;;;;;6.03;3.60;;;;;;;23.78;45.50;98353.59;5112732;28;20199;-52
2021/09/17 11:34:24;;;;;;;4.20;3.87;;;;;;;23.84;45.67;98352.00;5114943;28;20626;-53
2021/09/17 11:36:58;;;;;;;4.83;4.43;;;;;;;23.88;45.71;98355.91;5114820;28;20240;-52